createdAt,value
2017-08-20T00:01:00.324Z,66.79
2017-08-20T00:03:27.743Z,66.95
2017-08-20T00:05:55.131Z,67.43
2017-08-20T00:08:22.775Z,68.17
2017-08-20T00:10:50.196Z,68.05
2017-08-20T00:13:17.665Z,67.82
2017-08-20T00:15:45.041Z,67.80
2017-08-20T00:18:12.650Z,68.08
2017-08-20T00:20:40.035Z,68.15
2017-08-20T00:23:07.435Z,68.14
2017-08-20T00:25:34.827Z,67.98
2017-08-20T00:28:02.227Z,68.00
2017-08-20T00:30:29.655Z,67.83
2017-08-20T00:32:57.038Z,68.77
2017-08-20T00:35:24.442Z,69.16
2017-08-20T00:37:51.843Z,69.15
2017-08-20T00:40:19.470Z,69.02
2017-08-20T00:42:46.860Z,69.06
2017-08-20T00:45:14.488Z,69.00
2017-08-20T00:47:41.874Z,68.96
2017-08-20T00:50:09.264Z,69.39
2017-08-20T00:52:36.663Z,69.09
2017-08-20T00:55:04.069Z,69.26
2017-08-20T00:57:31.463Z,69.03
2017-08-20T00:59:58.860Z,68.81
2017-08-20T01:02:26.283Z,68.91
2017-08-20T01:04:53.679Z,69.17
2017-08-20T01:07:21.087Z,69.25
2017-08-20T01:09:48.487Z,68.91
2017-08-20T01:12:15.891Z,69.21
2017-08-20T01:14:46.211Z,69.25
2017-08-20T01:17:13.595Z,69.31
2017-08-20T01:19:40.997Z,69.50
2017-08-20T01:22:08.393Z,69.68
2017-08-20T01:24:35.787Z,69.24
2017-08-20T01:27:03.183Z,68.88
2017-08-20T01:29:30.574Z,69.08
2017-08-20T01:31:57.991Z,68.92
2017-08-20T01:34:25.383Z,68.89
2017-08-20T01:36:52.787Z,68.17
2017-08-20T01:39:20.188Z,68.53
2017-08-20T01:41:47.583Z,68.24
2017-08-20T01:44:14.992Z,68.96
2017-08-20T01:46:42.375Z,68.41
2017-08-20T01:49:09.778Z,68.56
2017-08-20T01:51:37.170Z,69.03
2017-08-20T01:54:04.566Z,68.57
2017-08-20T01:56:31.961Z,68.34
2017-08-20T01:58:59.355Z,68.30
2017-08-20T02:01:26.753Z,68.16
2017-08-20T02:03:54.134Z,68.18
2017-08-20T02:06:21.539Z,67.75
2017-08-20T02:08:48.935Z,67.89
2017-08-20T02:11:16.332Z,68.04
2017-08-20T02:13:43.726Z,67.91
2017-08-20T02:16:11.146Z,67.99
2017-08-20T02:18:38.532Z,67.74
2017-08-20T02:21:05.926Z,67.87
2017-08-20T02:23:33.318Z,68.06
2017-08-20T02:26:00.701Z,67.76
2017-08-20T02:28:28.087Z,68.08
2017-08-20T02:30:55.495Z,68.11
2017-08-20T02:33:22.883Z,68.06
2017-08-20T02:35:50.359Z,68.24
2017-08-20T02:38:17.730Z,67.77
2017-08-20T02:40:45.134Z,67.99
2017-08-20T02:43:12.550Z,68.05
2017-08-20T02:45:39.946Z,68.50
2017-08-20T02:48:07.352Z,68.24
2017-08-20T02:50:34.734Z,67.90
2017-08-20T02:53:02.136Z,68.07
2017-08-20T02:55:29.735Z,68.25
2017-08-20T02:57:57.134Z,68.03
2017-08-20T03:00:24.535Z,69.15
2017-08-20T03:02:51.938Z,68.91
2017-08-20T03:05:19.327Z,69.13
2017-08-20T03:07:46.735Z,69.21
2017-08-20T03:10:14.118Z,68.85
2017-08-20T03:12:41.736Z,70.01
2017-08-20T03:15:09.127Z,69.88
2017-08-20T03:17:36.538Z,69.96
2017-08-20T03:20:03.947Z,69.82
2017-08-20T03:22:31.349Z,69.60
2017-08-20T03:24:58.735Z,69.66
2017-08-20T03:27:26.137Z,69.81
2017-08-20T03:29:53.532Z,69.59
2017-08-20T03:32:20.947Z,69.81
2017-08-20T03:34:48.342Z,69.50
2017-08-20T03:37:15.730Z,69.77
2017-08-20T03:39:43.131Z,69.53
2017-08-20T03:42:29.675Z,69.74
2017-08-20T03:44:57.064Z,69.45
2017-08-20T03:47:24.691Z,69.62
2017-08-20T03:49:52.084Z,69.54
2017-08-20T03:52:19.703Z,69.54
2017-08-20T03:54:47.095Z,69.40
2017-08-20T03:57:14.496Z,69.93
2017-08-20T03:59:41.895Z,69.68
2017-08-20T04:02:09.509Z,69.29
2017-08-20T04:04:36.914Z,69.45
2017-08-20T04:07:04.316Z,69.31
2017-08-20T04:09:31.732Z,69.74
2017-08-20T04:11:59.107Z,69.91
2017-08-20T04:14:26.516Z,69.90
2017-08-20T04:16:53.903Z,69.81
2017-08-20T04:19:21.312Z,70.41
2017-08-20T04:21:48.714Z,70.01
2017-08-20T04:24:16.115Z,70.30
2017-08-20T04:26:43.506Z,69.98
2017-08-20T04:29:10.908Z,70.20
2017-08-20T04:31:38.304Z,70.47
2017-08-20T04:34:05.911Z,70.94
2017-08-20T04:36:34.082Z,70.92
2017-08-20T04:39:01.478Z,70.60
2017-08-20T04:41:28.886Z,70.64
2017-08-20T04:43:56.492Z,70.25
2017-08-20T04:46:23.887Z,70.78
2017-08-20T04:48:51.495Z,70.84
2017-08-20T04:51:18.907Z,71.15
2017-08-20T04:53:46.299Z,71.35
2017-08-20T04:56:13.914Z,70.89
2017-08-20T04:58:41.316Z,70.61
2017-08-20T05:01:08.727Z,70.35
2017-08-20T05:03:36.123Z,70.46
2017-08-20T05:06:03.526Z,70.63
2017-08-20T05:08:30.923Z,70.94
2017-08-20T05:10:58.327Z,70.88
2017-08-20T05:13:25.727Z,71.04
2017-08-20T05:15:53.118Z,71.50
2017-08-20T05:18:20.795Z,71.33
2017-08-20T05:20:48.455Z,71.23
2017-08-20T05:23:15.860Z,70.78
2017-08-20T05:25:43.254Z,71.57
2017-08-20T05:28:10.927Z,71.13
2017-08-20T05:30:38.334Z,71.08
2017-08-20T05:33:05.727Z,71.26
2017-08-20T05:35:33.130Z,70.93
2017-08-20T05:38:00.531Z,71.13
2017-08-20T05:40:27.939Z,70.94
2017-08-20T05:42:55.338Z,71.26
2017-08-20T05:45:22.962Z,71.37
2017-08-20T05:47:50.351Z,71.47
2017-08-20T05:50:17.980Z,72.45
2017-08-20T05:52:45.594Z,72.81
2017-08-20T05:55:12.996Z,73.00
2017-08-20T05:57:40.398Z,73.52
2017-08-20T06:00:07.807Z,73.87
2017-08-20T06:02:35.200Z,73.99
2017-08-20T06:05:02.602Z,74.06
2017-08-20T06:07:30.989Z,74.07
2017-08-20T06:09:58.395Z,73.59
2017-08-20T06:12:25.792Z,73.29
2017-08-20T06:14:53.214Z,73.60
2017-08-20T06:17:21.765Z,73.32
2017-08-20T06:19:49.249Z,73.60
2017-08-20T06:22:16.857Z,73.75
2017-08-20T06:24:44.482Z,74.38
2017-08-20T06:27:11.879Z,74.86
2017-08-20T06:29:39.328Z,74.53
2017-08-20T06:32:06.938Z,74.31
2017-08-20T06:34:34.550Z,74.38
2017-08-20T06:37:01.978Z,74.29
2017-08-20T06:39:29.383Z,73.45
2017-08-20T06:41:56.794Z,73.88
2017-08-20T06:44:24.188Z,74.67
2017-08-20T06:46:51.599Z,73.30
2017-08-20T06:49:18.991Z,72.85
2017-08-20T06:51:46.395Z,73.42
2017-08-20T06:54:13.789Z,72.98
2017-08-20T06:56:41.197Z,73.22
2017-08-20T06:59:08.582Z,71.83
2017-08-20T07:01:35.980Z,71.72
2017-08-20T07:04:03.365Z,71.93
2017-08-20T07:06:30.977Z,71.64
2017-08-20T07:08:58.375Z,71.51
2017-08-20T07:11:25.772Z,71.35
2017-08-20T07:13:53.411Z,71.63
2017-08-20T07:16:21.007Z,71.95
2017-08-20T07:18:48.414Z,72.15
2017-08-20T07:21:15.807Z,71.81
2017-08-20T07:23:43.211Z,71.19
2017-08-20T07:26:10.618Z,71.83
2017-08-20T07:28:38.022Z,71.73
2017-08-20T07:31:05.417Z,71.67
2017-08-20T07:33:32.902Z,72.43
2017-08-20T07:36:00.284Z,71.34
2017-08-20T07:38:27.706Z,71.35
2017-08-20T07:40:55.095Z,71.43
2017-08-20T07:43:22.787Z,69.98
2017-08-20T07:45:50.174Z,70.01
2017-08-20T07:48:17.583Z,70.13
2017-08-20T07:50:44.968Z,70.11
2017-08-20T07:53:12.372Z,69.74
2017-08-20T07:55:39.762Z,68.95
2017-08-20T07:58:07.160Z,69.64
2017-08-20T08:00:35.425Z,70.34
2017-08-20T08:03:03.132Z,69.92
2017-08-20T08:05:30.606Z,69.19
2017-08-20T08:07:58.004Z,68.78
2017-08-20T08:10:25.779Z,69.07
2017-08-20T08:12:53.500Z,69.17
2017-08-20T08:15:20.966Z,67.64
2017-08-20T08:17:49.343Z,67.81
2017-08-20T08:20:16.979Z,68.54
2017-08-20T08:22:45.097Z,69.06
2017-08-20T08:25:12.591Z,67.75
2017-08-20T08:27:39.978Z,67.38
2017-08-20T08:30:07.388Z,66.17
2017-08-20T08:32:34.779Z,67.25
2017-08-20T08:35:02.166Z,67.11
2017-08-20T08:37:29.653Z,66.59
2017-08-20T08:39:57.054Z,66.35
2017-08-20T08:42:24.448Z,66.09
2017-08-20T08:44:51.845Z,66.06
2017-08-20T08:47:19.226Z,65.67
2017-08-20T08:49:46.633Z,65.56
2017-08-20T08:52:14.032Z,64.90
2017-08-20T08:54:41.430Z,64.05
2017-08-20T08:57:08.826Z,63.97
2017-08-20T08:59:36.203Z,64.88
2017-08-20T09:02:03.598Z,64.19
2017-08-20T09:04:31.002Z,63.42
2017-08-20T09:06:58.386Z,63.46
2017-08-20T09:09:25.781Z,63.44
2017-08-20T09:11:53.167Z,61.60
2017-08-20T09:14:20.550Z,61.57
2017-08-20T09:16:48.191Z,60.88
2017-08-20T09:19:15.857Z,60.00
2017-08-20T09:21:43.249Z,61.21
2017-08-20T09:24:10.645Z,60.42
2017-08-20T09:26:38.038Z,61.12
2017-08-20T09:29:05.431Z,61.73
2017-08-20T09:31:32.831Z,61.37
2017-08-20T09:34:00.222Z,61.53
2017-08-20T09:36:27.632Z,61.72
2017-08-20T09:38:54.998Z,59.91
2017-08-20T09:41:22.398Z,59.34
2017-08-20T09:43:49.795Z,59.88
2017-08-20T09:46:17.204Z,60.87
2017-08-20T09:48:44.601Z,60.15
2017-08-20T09:51:11.999Z,58.95
2017-08-20T09:53:39.403Z,58.91
2017-08-20T09:56:06.782Z,58.41
2017-08-20T09:58:34.181Z,58.13
2017-08-20T10:01:01.797Z,58.02
2017-08-20T10:03:29.207Z,57.83
2017-08-20T10:05:56.602Z,57.92
2017-08-20T10:08:23.991Z,57.81
2017-08-20T10:10:51.401Z,58.42
2017-08-20T10:13:18.791Z,58.18
2017-08-20T10:15:46.182Z,57.88
2017-08-20T10:18:13.587Z,57.63
2017-08-20T10:20:41.246Z,57.55
2017-08-20T10:23:08.644Z,55.76
2017-08-20T10:25:36.032Z,54.93
2017-08-20T10:28:03.638Z,56.14
2017-08-20T10:30:31.248Z,56.87
2017-08-20T10:32:58.637Z,56.57
2017-08-20T10:35:26.024Z,56.32
2017-08-20T10:37:53.434Z,56.28
2017-08-20T10:40:20.850Z,56.77
2017-08-20T10:42:48.240Z,56.06
2017-08-20T10:45:15.635Z,55.66
2017-08-20T10:47:43.030Z,56.79
2017-08-20T10:50:10.419Z,57.79
2017-08-20T10:52:51.028Z,57.90
2017-08-20T10:55:18.427Z,58.12
2017-08-20T10:57:46.461Z,57.64
2017-08-20T11:00:13.933Z,54.80
2017-08-20T11:02:42.158Z,56.00
2017-08-20T11:05:09.903Z,56.58
2017-08-20T11:07:37.321Z,56.81
2017-08-20T11:10:04.708Z,56.18
2017-08-20T11:12:33.345Z,54.99
2017-08-20T11:15:01.487Z,56.73
2017-08-20T11:17:29.465Z,57.90
2017-08-20T11:19:56.866Z,57.57
2017-08-20T11:22:24.263Z,57.27
2017-08-20T11:24:51.667Z,57.95
2017-08-20T11:27:19.071Z,57.12
2017-08-20T11:29:46.677Z,58.57
2017-08-20T11:32:14.388Z,60.85
2017-08-20T11:34:41.804Z,62.00
2017-08-20T11:37:09.202Z,63.04
2017-08-20T11:39:37.163Z,63.73
2017-08-20T11:42:04.559Z,64.84
2017-08-20T11:44:31.946Z,64.43
2017-08-20T11:46:59.555Z,64.60
2017-08-20T11:49:26.944Z,64.45
2017-08-20T11:51:54.336Z,64.95
2017-08-20T11:54:21.763Z,64.49
2017-08-20T11:56:49.139Z,65.09
2017-08-20T11:59:16.818Z,64.84
2017-08-20T12:01:44.231Z,63.75
2017-08-20T12:04:11.630Z,63.91
2017-08-20T12:06:39.022Z,63.81
2017-08-20T12:09:06.403Z,64.13
2017-08-20T12:11:33.802Z,64.06
2017-08-20T12:14:01.460Z,65.17
2017-08-20T12:16:29.119Z,63.96
2017-08-20T12:18:56.507Z,65.71
2017-08-20T12:21:23.923Z,65.83
2017-08-20T12:23:51.312Z,68.29
2017-08-20T12:26:18.698Z,65.77
2017-08-20T12:28:46.109Z,69.70
2017-08-20T12:31:13.510Z,68.41
2017-08-20T12:33:40.923Z,67.40
2017-08-20T12:36:08.570Z,66.70
2017-08-20T12:38:35.974Z,68.30
2017-08-20T12:41:03.384Z,68.99
2017-08-20T12:43:30.778Z,70.01
2017-08-20T12:45:58.499Z,70.21
2017-08-20T12:48:25.891Z,70.59
2017-08-20T12:50:53.274Z,70.98
2017-08-20T12:53:20.674Z,71.09
2017-08-20T12:55:48.071Z,71.85
2017-08-20T12:58:15.476Z,71.29
2017-08-20T13:00:42.861Z,71.59
2017-08-20T13:03:10.467Z,70.42
2017-08-20T13:05:38.147Z,71.10
2017-08-20T13:08:05.542Z,70.22
2017-08-20T13:10:33.137Z,71.94
2017-08-20T13:13:00.530Z,70.10
2017-08-20T13:15:27.914Z,69.89
2017-08-20T13:17:55.314Z,68.11
2017-08-20T13:20:22.702Z,69.45
2017-08-20T13:22:50.092Z,68.29
2017-08-20T13:25:17.492Z,66.88
2017-08-20T13:27:45.158Z,65.19
2017-08-20T13:30:12.556Z,65.28
2017-08-20T13:32:39.943Z,60.87
2017-08-20T13:35:07.352Z,64.94
2017-08-20T13:37:34.730Z,65.46
2017-08-20T13:40:02.445Z,68.19
2017-08-20T13:42:30.107Z,69.28
2017-08-20T13:44:57.762Z,70.13
2017-08-20T13:47:25.151Z,72.56
2017-08-20T13:49:52.634Z,73.11
2017-08-20T13:52:20.018Z,72.91
2017-08-20T13:54:47.411Z,73.55
2017-08-20T13:57:14.804Z,73.40
2017-08-20T13:59:42.507Z,73.80
2017-08-20T14:02:09.896Z,72.99
2017-08-20T14:04:37.282Z,72.50
2017-08-20T14:07:06.744Z,72.95
2017-08-20T14:09:34.143Z,73.53
2017-08-20T14:12:01.533Z,73.90
2017-08-20T14:14:28.920Z,74.71
2017-08-20T14:16:56.311Z,75.52
2017-08-20T14:19:23.709Z,75.53
2017-08-20T14:21:51.088Z,75.03
2017-08-20T14:24:18.487Z,75.44
2017-08-20T14:26:46.178Z,75.03
2017-08-20T14:29:13.556Z,74.04
2017-08-20T14:31:40.960Z,73.77
2017-08-20T14:34:08.343Z,73.75
2017-08-20T14:36:35.734Z,73.28
2017-08-20T14:39:03.122Z,72.75
2017-08-20T14:41:30.512Z,72.63
2017-08-20T14:43:57.900Z,72.35
2017-08-20T14:46:25.299Z,72.54
2017-08-20T14:48:52.973Z,72.78
2017-08-20T14:51:20.363Z,72.69
2017-08-20T14:53:47.745Z,73.02
2017-08-20T14:56:15.150Z,73.69
2017-08-20T14:58:42.547Z,73.17
2017-08-20T15:01:09.943Z,72.52
2017-08-20T15:03:37.327Z,72.81
2017-08-20T15:06:04.710Z,72.32
2017-08-20T15:08:32.109Z,72.41
2017-08-20T15:10:59.491Z,72.49
2017-08-20T15:13:26.917Z,72.85
2017-08-20T15:15:54.299Z,72.33
2017-08-20T15:18:21.937Z,71.99
2017-08-20T15:20:49.327Z,72.21
2017-08-20T15:23:16.727Z,72.12
2017-08-20T15:25:44.111Z,72.59
2017-08-20T15:28:11.503Z,72.79
2017-08-20T15:30:38.908Z,72.37
2017-08-20T15:33:06.295Z,73.67
2017-08-20T15:35:33.687Z,73.57
2017-08-20T15:38:01.079Z,74.80
2017-08-20T15:40:28.478Z,75.17
2017-08-20T15:42:55.862Z,74.39
2017-08-20T15:45:23.555Z,75.30
2017-08-20T15:47:50.939Z,75.60
2017-08-20T15:50:18.571Z,75.97
2017-08-20T15:52:45.958Z,76.50
2017-08-20T15:55:13.354Z,75.99
2017-08-20T15:57:40.735Z,76.21
2017-08-20T16:00:08.131Z,76.44
2017-08-20T16:02:35.515Z,76.47
2017-08-20T16:05:02.911Z,76.46
2017-08-20T16:07:30.294Z,75.39
2017-08-20T16:09:57.695Z,75.02
2017-08-20T16:12:25.078Z,74.96
2017-08-20T16:14:52.479Z,74.87
2017-08-20T16:17:19.871Z,74.31
2017-08-20T16:19:47.272Z,73.82
2017-08-20T16:22:15.638Z,74.07
2017-08-20T16:24:43.033Z,73.42
2017-08-20T16:27:10.418Z,73.71
2017-08-20T16:29:37.849Z,73.84
2017-08-20T16:32:05.235Z,74.17
2017-08-20T16:34:32.626Z,73.85
2017-08-20T16:37:00.018Z,74.19
2017-08-20T16:39:27.402Z,73.97
2017-08-20T16:41:54.794Z,74.23
2017-08-20T16:44:22.174Z,74.17
2017-08-20T16:46:49.873Z,74.38
2017-08-20T16:49:17.535Z,73.73
2017-08-20T16:51:44.926Z,73.30
2017-08-20T16:54:12.315Z,73.23
2017-08-20T16:56:39.716Z,72.89
2017-08-20T16:59:07.358Z,72.76
2017-08-20T17:01:34.758Z,73.01
2017-08-20T17:04:02.143Z,73.16
2017-08-20T17:06:29.541Z,73.58
2017-08-20T17:08:56.931Z,73.60
2017-08-20T17:11:24.643Z,73.54
2017-08-20T17:13:52.035Z,73.20
2017-08-20T17:16:19.422Z,73.46
2017-08-20T17:18:46.820Z,72.89
2017-08-20T17:21:14.471Z,73.03
2017-08-20T17:23:41.862Z,73.30
2017-08-20T17:26:09.256Z,73.26
2017-08-20T17:28:36.647Z,73.10
2017-08-20T17:31:04.038Z,73.04
2017-08-20T17:33:31.439Z,73.53
2017-08-20T17:35:58.827Z,73.32
2017-08-20T17:38:26.212Z,73.73
2017-08-20T17:40:53.614Z,73.45
2017-08-20T17:43:20.994Z,73.51
2017-08-20T17:45:48.425Z,73.56
2017-08-20T17:48:15.824Z,73.58
2017-08-20T17:50:43.204Z,73.68
2017-08-20T17:53:10.605Z,73.53
2017-08-20T17:55:37.983Z,73.97
2017-08-20T17:58:05.608Z,74.34
2017-08-20T18:00:33.000Z,73.89
2017-08-20T18:03:00.387Z,73.70
2017-08-20T18:05:27.842Z,73.36
2017-08-20T18:07:55.265Z,72.87
2017-08-20T18:10:22.713Z,73.13
2017-08-20T18:12:50.085Z,73.04
2017-08-20T18:15:17.562Z,72.74
2017-08-20T18:17:44.956Z,72.66
2017-08-20T18:20:12.418Z,72.86
2017-08-20T18:22:40.041Z,72.62
2017-08-20T18:25:07.434Z,72.63
2017-08-20T18:27:34.827Z,72.90
2017-08-20T18:30:02.222Z,73.47
2017-08-20T18:32:29.626Z,73.00
2017-08-20T18:34:57.031Z,73.10
2017-08-20T18:37:24.443Z,73.48
2017-08-20T18:39:51.836Z,73.22
2017-08-20T18:42:19.230Z,72.93
2017-08-20T18:44:46.625Z,72.72
2017-08-20T18:47:14.015Z,72.24
2017-08-20T18:49:41.414Z,72.20
2017-08-20T18:52:08.803Z,72.26
2017-08-20T18:54:36.202Z,72.12
2017-08-20T18:57:03.598Z,72.34
2017-08-20T18:59:30.997Z,72.00
2017-08-20T19:01:58.391Z,72.05
2017-08-20T19:04:25.784Z,71.90
2017-08-20T19:06:53.162Z,72.08
2017-08-20T19:09:20.823Z,72.32
2017-08-20T19:11:48.213Z,72.38
2017-08-20T19:14:15.599Z,72.17
2017-08-20T19:16:42.989Z,72.52
2017-08-20T19:19:10.390Z,72.62
2017-08-20T19:21:37.784Z,72.26
2017-08-20T19:24:05.172Z,72.45
2017-08-20T19:26:32.556Z,72.22
2017-08-20T19:28:59.958Z,72.11
2017-08-20T19:31:27.349Z,72.18
2017-08-20T19:33:54.763Z,72.84
2017-08-20T19:36:22.158Z,72.52
2017-08-20T19:38:49.538Z,73.37
2017-08-20T19:41:17.247Z,73.94
2017-08-20T19:43:44.644Z,73.83
2017-08-20T19:46:12.042Z,73.28
2017-08-20T19:48:39.645Z,72.81
2017-08-20T19:51:07.035Z,73.34
2017-08-20T19:53:34.419Z,73.54
2017-08-20T19:56:01.811Z,74.30
2017-08-20T19:58:29.199Z,73.98
2017-08-20T20:00:56.595Z,73.85
2017-08-20T20:03:24.011Z,73.83
2017-08-20T20:05:51.396Z,74.20
2017-08-20T20:08:18.782Z,74.50
2017-08-20T20:10:46.171Z,74.73
2017-08-20T20:13:13.879Z,74.63
2017-08-20T20:15:41.269Z,74.93
2017-08-20T20:18:08.674Z,75.58
2017-08-20T20:20:36.096Z,75.54
2017-08-20T20:23:03.495Z,76.00
2017-08-20T20:25:30.874Z,75.70
2017-08-20T20:27:58.276Z,75.77
2017-08-20T20:30:25.655Z,75.96
2017-08-20T20:32:53.072Z,76.20
2017-08-20T20:35:20.454Z,75.84
2017-08-20T20:37:47.851Z,75.63
2017-08-20T20:40:15.503Z,75.18
2017-08-20T20:42:42.884Z,75.03
2017-08-20T20:45:10.267Z,74.61
2017-08-20T20:47:37.667Z,74.79
2017-08-20T20:50:05.063Z,74.32
2017-08-20T20:52:32.443Z,74.49
2017-08-20T20:55:28.562Z,74.31
2017-08-20T20:57:56.261Z,74.80
2017-08-20T21:00:23.675Z,74.12
2017-08-20T21:02:51.079Z,74.04
2017-08-20T21:05:18.463Z,73.82
2017-08-20T21:07:45.856Z,73.57
2017-08-20T21:10:13.273Z,73.44
2017-08-20T21:12:40.647Z,73.40
2017-08-20T21:15:08.047Z,73.61
2017-08-20T21:17:35.431Z,73.17
2017-08-20T21:20:02.892Z,73.24
2017-08-20T21:22:30.520Z,73.97
2017-08-20T21:24:57.914Z,74.56
2017-08-20T21:27:25.307Z,74.43
2017-08-20T21:29:52.701Z,74.45
2017-08-20T21:32:20.600Z,74.43
2017-08-20T21:34:48.042Z,74.31
2017-08-20T21:37:15.411Z,73.99
2017-08-20T21:39:42.812Z,73.58
2017-08-20T21:42:10.218Z,73.40
2017-08-20T21:44:37.610Z,74.08
2017-08-20T21:47:05.218Z,73.64
2017-08-20T21:49:32.614Z,74.01
2017-08-20T21:51:59.999Z,73.88
2017-08-20T21:54:27.397Z,73.94
2017-08-20T21:56:54.791Z,74.16
2017-08-20T21:59:22.275Z,74.02
2017-08-20T22:01:49.675Z,73.82
2017-08-20T22:04:17.057Z,73.22
2017-08-20T22:06:44.446Z,73.06
2017-08-20T22:09:11.839Z,72.89
2017-08-20T22:11:39.231Z,72.66
2017-08-20T22:14:06.617Z,72.55
2017-08-20T22:16:34.018Z,72.38
2017-08-20T22:19:01.395Z,72.21
2017-08-20T22:21:28.786Z,72.54
2017-08-20T22:23:56.432Z,72.56
2017-08-20T22:26:23.818Z,72.32
2017-08-20T22:28:51.213Z,72.31
2017-08-20T22:31:18.595Z,72.37
2017-08-20T22:33:45.987Z,72.10
2017-08-20T22:36:14.137Z,71.89
2017-08-20T22:38:41.913Z,71.66
2017-08-20T22:41:09.355Z,71.77
2017-08-20T22:43:36.759Z,72.27
2017-08-20T22:46:04.454Z,72.38
2017-08-20T22:48:31.847Z,72.09
2017-08-20T22:50:59.247Z,71.94
2017-08-20T22:53:26.933Z,71.64
2017-08-20T22:55:54.314Z,71.52
2017-08-20T22:58:21.947Z,71.25
2017-08-20T23:00:49.608Z,70.97
2017-08-20T23:03:17.008Z,71.34
2017-08-20T23:05:44.395Z,71.62
2017-08-20T23:08:12.080Z,71.71
2017-08-20T23:10:39.486Z,71.74
2017-08-20T23:13:06.879Z,71.40
2017-08-20T23:15:34.274Z,71.79
2017-08-20T23:18:01.671Z,71.84
2017-08-20T23:20:29.059Z,71.72
2017-08-20T23:22:56.466Z,71.63
2017-08-20T23:25:23.850Z,71.29
2017-08-20T23:27:51.242Z,71.52
2017-08-20T23:30:18.643Z,71.07
2017-08-20T23:32:46.022Z,71.44
2017-08-20T23:35:13.428Z,71.63
2017-08-20T23:37:40.814Z,71.37
2017-08-20T23:40:08.503Z,71.39
2017-08-20T23:42:36.166Z,71.23
2017-08-20T23:45:03.833Z,71.26
2017-08-20T23:47:31.223Z,71.17
2017-08-20T23:49:58.943Z,71.33
2017-08-20T23:52:26.338Z,71.36
2017-08-20T23:54:53.730Z,71.35
2017-08-20T23:57:21.135Z,71.50
2017-08-20T23:59:48.530Z,71.45
